Etusivu
METAR-TAF:

METAR-TAF

Lentoasemat :

Albert Lea, Minnesota, Yhdysvallat

Leveyspiiri: 43-41N, Pituuspiiri: 093-22W, korkeus merenpinnasta: 383 m

Tämänhetkinen sää

Tämä raportti tehtiin 27 minuuttia sitten, kello 17.35 UTC
Tuuli 5 kn luoteesta
Lämpötila 6°C
Kosteus 75%
Ilmanpaine 1021 hPa
Näkyvyys: 16.1 km
Pilvistä 2000 ft:n korkeudessa

METAR: KAEL 161735Z AUTO 31005KT 10SM OVC020 06/02 A3014 RMK AO2

Aika: 13:02 (18:02 UTC)


TAF: puuttuu

Säähavainnot ja -ennusteet yli 4000 lentoasemalta (METAR- ja TAF-raportit).

Käytössä olevat sääasemat on merkitty karttaan keltaisilla ja punaisilla pisteillä.

Aseta hiiri pisteen päälle nähdäksesi sääaseman nimen.

Klikkaa sitten nähdäksesi säähavainnot ja -ennusteet.

Kartan vaihtaminen: klikkaa mustalla rastilla varustettuja vihreitä pisteitä, niin voit zoomata sisään; viivalla varustettua vihreää pistettä, niin voit zoomata ulos tai vihreitä nuolia, niin pääset viereisille kartoille.


METAR-TAF: